Capua (LIAU) weather

Grazzanise LIRM

Available data for LIRM from the past 2 hours
GRAZZANISE (IT-A
Metar
LIRM 210655Z 04006KT CAVOK 17/15 Q1021 RMK SKC VIS MIN 9999 WIND THR06 03005KT BLU

06:55 UTC

Wind: 40° 6kt

Visibility:

Sky:

Temp: 17 deg C / 62.6 deg F

Dewpoint: 15 deg C / 59 deg F

Pressure: 1021 hPa

TAF
TAF LIRM 210500Z 2106/2115 03005KT CAVOK

Capua Weather Station






top